sensor_id;sensor_type;location;lat;lon;timestamp;temperature;humidity
29577;DHT22;16509;53.862;10.672;2022-07-06T00:01:38;16.40;99.90
29577;DHT22;16509;53.862;10.672;2022-07-06T00:04:04;15.00;99.90
29577;DHT22;16509;53.862;10.672;2022-07-06T00:06:30;14.80;99.90
29577;DHT22;16509;53.862;10.672;2022-07-06T00:08:55;16.40;99.90
29577;DHT22;16509;53.862;10.672;2022-07-06T00:11:21;15.10;99.90
29577;DHT22;16509;53.862;10.672;2022-07-06T00:13:48;14.80;99.90
29577;DHT22;16509;53.862;10.672;2022-07-06T00:16:14;15.00;99.90
29577;DHT22;16509;53.862;10.672;2022-07-06T00:18:39;14.90;99.90
29577;DHT22;16509;53.862;10.672;2022-07-06T00:21:05;15.10;99.90
29577;DHT22;16509;53.862;10.672;2022-07-06T00:23:31;14.70;99.90
29577;DHT22;16509;53.862;10.672;2022-07-06T00:25:56;14.80;99.90
29577;DHT22;16509;53.862;10.672;2022-07-06T00:28:22;15.20;99.90
29577;DHT22;16509;53.862;10.672;2022-07-06T00:30:48;14.60;99.90
29577;DHT22;16509;53.862;10.672;2022-07-06T00:33:14;14.70;99.90
29577;DHT22;16509;53.862;10.672;2022-07-06T00:35:40;14.80;99.90
29577;DHT22;16509;53.862;10.672;2022-07-06T00:38:05;15.10;99.90
29577;DHT22;16509;53.862;10.672;2022-07-06T00:40:31;14.60;99.90
29577;DHT22;16509;53.862;10.672;2022-07-06T00:42:56;14.60;99.90
29577;DHT22;16509;53.862;10.672;2022-07-06T00:45:23;14.60;99.90
29577;DHT22;16509;53.862;10.672;2022-07-06T00:47:49;14.40;99.90
29577;DHT22;16509;53.862;10.672;2022-07-06T00:50:16;14.60;99.90
29577;DHT22;16509;53.862;10.672;2022-07-06T00:52:48;14.70;99.90
29577;DHT22;16509;53.862;10.672;2022-07-06T00:55:15;14.40;99.90
29577;DHT22;16509;53.862;10.672;2022-07-06T00:57:42;14.30;99.90
29577;DHT22;16509;53.862;10.672;2022-07-06T01:00:10;14.80;99.90
29577;DHT22;16509;53.862;10.672;2022-07-06T01:02:36;14.40;99.90
29577;DHT22;16509;53.862;10.672;2022-07-06T01:05:06;14.50;99.90
29577;DHT22;16509;53.862;10.672;2022-07-06T01:07:32;14.30;99.90
29577;DHT22;16509;53.862;10.672;2022-07-06T01:09:57;14.60;99.90
29577;DHT22;16509;53.862;10.672;2022-07-06T01:12:23;14.50;99.90
29577;DHT22;16509;53.862;10.672;2022-07-06T01:14:49;14.80;99.90
29577;DHT22;16509;53.862;10.672;2022-07-06T01:17:16;14.30;99.90
29577;DHT22;16509;53.862;10.672;2022-07-06T01:19:42;14.30;99.90
29577;DHT22;16509;53.862;10.672;2022-07-06T01:22:09;14.20;99.90
29577;DHT22;16509;53.862;10.672;2022-07-06T01:24:35;14.70;99.90
29577;DHT22;16509;53.862;10.672;2022-07-06T01:27:01;14.30;99.90
29577;DHT22;16509;53.862;10.672;2022-07-06T01:29:28;14.30;99.90
29577;DHT22;16509;53.862;10.672;2022-07-06T01:31:54;14.40;99.90
29577;DHT22;16509;53.862;10.672;2022-07-06T01:34:21;14.50;99.90
29577;DHT22;16509;53.862;10.672;2022-07-06T01:36:46;14.70;99.90
29577;DHT22;16509;53.862;10.672;2022-07-06T01:39:12;15.00;99.90
29577;DHT22;16509;53.862;10.672;2022-07-06T01:41:38;14.50;99.90
29577;DHT22;16509;53.862;10.672;2022-07-06T01:44:04;14.50;99.90
29577;DHT22;16509;53.862;10.672;2022-07-06T01:46:30;14.70;99.90
29577;DHT22;16509;53.862;10.672;2022-07-06T01:48:56;14.40;99.90
29577;DHT22;16509;53.862;10.672;2022-07-06T01:51:22;14.50;99.90
29577;DHT22;16509;53.862;10.672;2022-07-06T01:53:48;14.80;99.90
29577;DHT22;16509;53.862;10.672;2022-07-06T01:58:42;14.20;99.90
29577;DHT22;16509;53.862;10.672;2022-07-06T02:01:09;14.40;99.90
29577;DHT22;16509;53.862;10.672;2022-07-06T02:03:36;14.50;99.90
29577;DHT22;16509;53.862;10.672;2022-07-06T02:06:03;14.60;99.90
29577;DHT22;16509;53.862;10.672;2022-07-06T02:08:29;14.40;99.90
29577;DHT22;16509;53.862;10.672;2022-07-06T02:10:55;14.60;99.90
29577;DHT22;16509;53.862;10.672;2022-07-06T02:13:21;14.70;99.90
29577;DHT22;16509;53.862;10.672;2022-07-06T02:15:46;14.50;99.90
29577;DHT22;16509;53.862;10.672;2022-07-06T02:18:12;14.40;99.90
29577;DHT22;16509;53.862;10.672;2022-07-06T02:20:38;14.40;99.90
29577;DHT22;16509;53.862;10.672;2022-07-06T02:23:07;14.40;99.90
29577;DHT22;16509;53.862;10.672;2022-07-06T02:25:33;14.40;99.90
29577;DHT22;16509;53.862;10.672;2022-07-06T02:27:58;14.30;99.90
29577;DHT22;16509;53.862;10.672;2022-07-06T02:30:24;14.40;99.90
29577;DHT22;16509;53.862;10.672;2022-07-06T02:35:15;14.40;99.90
29577;DHT22;16509;53.862;10.672;2022-07-06T02:37:41;14.40;99.90
29577;DHT22;16509;53.862;10.672;2022-07-06T02:40:07;14.50;99.90
29577;DHT22;16509;53.862;10.672;2022-07-06T02:42:33;14.50;99.90
29577;DHT22;16509;53.862;10.672;2022-07-06T02:44:58;14.80;99.90
29577;DHT22;16509;53.862;10.672;2022-07-06T02:47:24;14.50;99.90
29577;DHT22;16509;53.862;10.672;2022-07-06T02:49:52;14.70;99.90
29577;DHT22;16509;53.862;10.672;2022-07-06T02:52:18;14.60;99.90
29577;DHT22;16509;53.862;10.672;2022-07-06T02:54:44;14.40;99.90
29577;DHT22;16509;53.862;10.672;2022-07-06T02:57:09;14.40;99.90
29577;DHT22;16509;53.862;10.672;2022-07-06T02:59:35;14.80;99.90
29577;DHT22;16509;53.862;10.672;2022-07-06T03:02:03;14.50;99.90
29577;DHT22;16509;53.862;10.672;2022-07-06T03:04:29;14.40;99.90
29577;DHT22;16509;53.862;10.672;2022-07-06T03:06:54;14.40;99.90
29577;DHT22;16509;53.862;10.672;2022-07-06T03:09:20;14.40;99.90
29577;DHT22;16509;53.862;10.672;2022-07-06T03:11:45;14.40;99.90
29577;DHT22;16509;53.862;10.672;2022-07-06T03:14:11;14.40;99.90
29577;DHT22;16509;53.862;10.672;2022-07-06T03:16:36;14.40;99.90
29577;DHT22;16509;53.862;10.672;2022-07-06T03:19:02;14.40;99.90
29577;DHT22;16509;53.862;10.672;2022-07-06T03:21:28;14.40;99.90
29577;DHT22;16509;53.862;10.672;2022-07-06T03:23:53;14.30;99.90
29577;DHT22;16509;53.862;10.672;2022-07-06T03:26:20;14.40;99.90
29577;DHT22;16509;53.862;10.672;2022-07-06T03:28:45;14.40;99.90
29577;DHT22;16509;53.862;10.672;2022-07-06T03:31:11;14.20;99.90
29577;DHT22;16509;53.862;10.672;2022-07-06T03:33:36;14.70;99.90
29577;DHT22;16509;53.862;10.672;2022-07-06T03:36:02;14.40;99.90
29577;DHT22;16509;53.862;10.672;2022-07-06T03:38:28;14.40;99.90
29577;DHT22;16509;53.862;10.672;2022-07-06T03:40:54;14.40;99.90
29577;DHT22;16509;53.862;10.672;2022-07-06T03:43:19;14.30;99.90
29577;DHT22;16509;53.862;10.672;2022-07-06T03:45:45;14.40;99.90
29577;DHT22;16509;53.862;10.672;2022-07-06T03:48:10;14.40;99.90
29577;DHT22;16509;53.862;10.672;2022-07-06T03:50:36;14.30;99.90
29577;DHT22;16509;53.862;10.672;2022-07-06T03:53:02;14.30;99.90
29577;DHT22;16509;53.862;10.672;2022-07-06T03:55:27;14.20;99.90
29577;DHT22;16509;53.862;10.672;2022-07-06T03:57:53;14.30;99.90
29577;DHT22;16509;53.862;10.672;2022-07-06T04:00:20;14.30;99.90
29577;DHT22;16509;53.862;10.672;2022-07-06T04:02:45;14.30;99.90
29577;DHT22;16509;53.862;10.672;2022-07-06T04:05:11;14.90;99.90
29577;DHT22;16509;53.862;10.672;2022-07-06T04:07:36;14.50;99.90
29577;DHT22;16509;53.862;10.672;2022-07-06T04:10:03;14.60;99.90
29577;DHT22;16509;53.862;10.672;2022-07-06T04:12:29;14.60;99.90
29577;DHT22;16509;53.862;10.672;2022-07-06T04:14:56;14.60;99.90
29577;DHT22;16509;53.862;10.672;2022-07-06T04:17:23;14.80;99.90
29577;DHT22;16509;53.862;10.672;2022-07-06T04:20:08;14.50;99.90
29577;DHT22;16509;53.862;10.672;2022-07-06T04:22:37;14.40;99.90
29577;DHT22;16509;53.862;10.672;2022-07-06T04:25:03;14.30;99.90
29577;DHT22;16509;53.862;10.672;2022-07-06T04:27:29;14.30;99.90
29577;DHT22;16509;53.862;10.672;2022-07-06T04:29:54;14.10;99.90
29577;DHT22;16509;53.862;10.672;2022-07-06T04:32:20;14.10;99.90
29577;DHT22;16509;53.862;10.672;2022-07-06T04:34:45;14.10;99.90
29577;DHT22;16509;53.862;10.672;2022-07-06T04:37:11;14.00;99.90
29577;DHT22;16509;53.862;10.672;2022-07-06T04:39:37;14.00;99.90
29577;DHT22;16509;53.862;10.672;2022-07-06T04:42:02;14.00;99.90
29577;DHT22;16509;53.862;10.672;2022-07-06T04:44:28;13.90;99.90
29577;DHT22;16509;53.862;10.672;2022-07-06T04:46:54;13.90;99.90
29577;DHT22;16509;53.862;10.672;2022-07-06T04:49:19;13.80;99.90
29577;DHT22;16509;53.862;10.672;2022-07-06T04:51:45;13.80;99.90
29577;DHT22;16509;53.862;10.672;2022-07-06T04:54:11;13.90;99.90
29577;DHT22;16509;53.862;10.672;2022-07-06T04:56:36;14.00;99.90
29577;DHT22;16509;53.862;10.672;2022-07-06T04:59:05;14.00;99.90
29577;DHT22;16509;53.862;10.672;2022-07-06T05:01:33;14.00;99.90
29577;DHT22;16509;53.862;10.672;2022-07-06T05:03:59;14.00;99.90
29577;DHT22;16509;53.862;10.672;2022-07-06T05:06:25;14.00;99.90
29577;DHT22;16509;53.862;10.672;2022-07-06T05:08:50;14.00;99.90
29577;DHT22;16509;53.862;10.672;2022-07-06T05:11:16;14.00;99.90
29577;DHT22;16509;53.862;10.672;2022-07-06T05:13:43;14.00;99.90
29577;DHT22;16509;53.862;10.672;2022-07-06T05:16:09;14.10;99.90
29577;DHT22;16509;53.862;10.672;2022-07-06T05:18:34;14.10;99.90
29577;DHT22;16509;53.862;10.672;2022-07-06T05:21:00;14.10;99.90
29577;DHT22;16509;53.862;10.672;2022-07-06T05:23:26;14.10;99.90
29577;DHT22;16509;53.862;10.672;2022-07-06T05:25:54;14.10;99.90
29577;DHT22;16509;53.862;10.672;2022-07-06T05:28:19;14.20;99.90
29577;DHT22;16509;53.862;10.672;2022-07-06T05:30:45;14.10;99.90
29577;DHT22;16509;53.862;10.672;2022-07-06T05:33:13;14.30;99.90
29577;DHT22;16509;53.862;10.672;2022-07-06T05:35:38;14.30;99.90
29577;DHT22;16509;53.862;10.672;2022-07-06T05:38:04;14.30;99.90
29577;DHT22;16509;53.862;10.672;2022-07-06T05:40:30;14.40;99.90
29577;DHT22;16509;53.862;10.672;2022-07-06T05:42:56;14.50;99.90
29577;DHT22;16509;53.862;10.672;2022-07-06T05:45:22;14.50;99.90
29577;DHT22;16509;53.862;10.672;2022-07-06T05:47:48;14.50;99.90
29577;DHT22;16509;53.862;10.672;2022-07-06T05:50:32;14.60;99.90
29577;DHT22;16509;53.862;10.672;2022-07-06T05:53:03;14.70;99.90
29577;DHT22;16509;53.862;10.672;2022-07-06T05:55:29;14.80;99.90
29577;DHT22;16509;53.862;10.672;2022-07-06T05:57:55;14.90;99.90
29577;DHT22;16509;53.862;10.672;2022-07-06T06:00:22;15.10;99.90
29577;DHT22;16509;53.862;10.672;2022-07-06T06:02:48;15.50;99.90
29577;DHT22;16509;53.862;10.672;2022-07-06T06:05:14;15.20;99.90
29577;DHT22;16509;53.862;10.672;2022-07-06T06:07:42;15.20;99.90
29577;DHT22;16509;53.862;10.672;2022-07-06T06:10:10;15.40;99.90
29577;DHT22;16509;53.862;10.672;2022-07-06T06:12:36;15.40;99.90
29577;DHT22;16509;53.862;10.672;2022-07-06T06:15:03;15.40;99.90
29577;DHT22;16509;53.862;10.672;2022-07-06T06:17:28;15.50;99.90
29577;DHT22;16509;53.862;10.672;2022-07-06T06:19:54;15.90;99.90
29577;DHT22;16509;53.862;10.672;2022-07-06T06:22:20;15.60;99.90
29577;DHT22;16509;53.862;10.672;2022-07-06T06:24:45;17.00;99.90
29577;DHT22;16509;53.862;10.672;2022-07-06T06:27:11;15.70;99.90
29577;DHT22;16509;53.862;10.672;2022-07-06T06:29:37;15.80;99.90
29577;DHT22;16509;53.862;10.672;2022-07-06T06:32:03;15.80;99.90
29577;DHT22;16509;53.862;10.672;2022-07-06T06:34:31;16.00;99.90
29577;DHT22;16509;53.862;10.672;2022-07-06T06:37:00;16.20;99.90
29577;DHT22;16509;53.862;10.672;2022-07-06T06:39:26;16.40;99.90
29577;DHT22;16509;53.862;10.672;2022-07-06T06:41:51;16.60;99.90
29577;DHT22;16509;53.862;10.672;2022-07-06T06:44:17;16.60;99.90
29577;DHT22;16509;53.862;10.672;2022-07-06T06:46:43;16.50;99.90
29577;DHT22;16509;53.862;10.672;2022-07-06T06:49:09;16.60;99.90
29577;DHT22;16509;53.862;10.672;2022-07-06T06:51:35;16.70;99.90
29577;DHT22;16509;53.862;10.672;2022-07-06T06:54:03;16.60;99.90
29577;DHT22;16509;53.862;10.672;2022-07-06T06:56:28;16.80;99.90
29577;DHT22;16509;53.862;10.672;2022-07-06T06:58:54;16.80;99.90
29577;DHT22;16509;53.862;10.672;2022-07-06T07:01:20;16.90;99.90
29577;DHT22;16509;53.862;10.672;2022-07-06T07:03:45;17.20;99.90
29577;DHT22;16509;53.862;10.672;2022-07-06T07:06:12;17.30;99.90
29577;DHT22;16509;53.862;10.672;2022-07-06T07:08:37;17.30;99.90
29577;DHT22;16509;53.862;10.672;2022-07-06T07:11:03;17.30;99.90
29577;DHT22;16509;53.862;10.672;2022-07-06T07:13:29;17.30;99.90
29577;DHT22;16509;53.862;10.672;2022-07-06T07:15:54;17.30;99.90
29577;DHT22;16509;53.862;10.672;2022-07-06T07:18:20;17.20;99.90
29577;DHT22;16509;53.862;10.672;2022-07-06T07:20:46;17.20;99.90
29577;DHT22;16509;53.862;10.672;2022-07-06T07:23:11;17.30;99.90
29577;DHT22;16509;53.862;10.672;2022-07-06T07:25:38;17.20;99.90
29577;DHT22;16509;53.862;10.672;2022-07-06T07:28:05;17.20;99.90
29577;DHT22;16509;53.862;10.672;2022-07-06T07:30:30;17.20;99.90
29577;DHT22;16509;53.862;10.672;2022-07-06T07:32:56;17.70;99.90
29577;DHT22;16509;53.862;10.672;2022-07-06T07:35:22;17.60;99.90
29577;DHT22;16509;53.862;10.672;2022-07-06T07:37:48;17.60;99.90
29577;DHT22;16509;53.862;10.672;2022-07-06T07:40:16;17.60;99.90
29577;DHT22;16509;53.862;10.672;2022-07-06T07:42:42;17.50;99.90
29577;DHT22;16509;53.862;10.672;2022-07-06T07:45:08;17.50;99.90
29577;DHT22;16509;53.862;10.672;2022-07-06T07:47:34;17.50;99.90
29577;DHT22;16509;53.862;10.672;2022-07-06T07:50:00;17.60;99.90
29577;DHT22;16509;53.862;10.672;2022-07-06T07:52:25;17.70;99.90
29577;DHT22;16509;53.862;10.672;2022-07-06T07:54:51;17.60;99.90
29577;DHT22;16509;53.862;10.672;2022-07-06T07:57:17;17.70;99.90
29577;DHT22;16509;53.862;10.672;2022-07-06T07:59:43;17.70;99.90
29577;DHT22;16509;53.862;10.672;2022-07-06T08:02:08;17.80;99.90
29577;DHT22;16509;53.862;10.672;2022-07-06T08:04:34;18.00;99.90
29577;DHT22;16509;53.862;10.672;2022-07-06T08:06:59;18.20;99.90
29577;DHT22;16509;53.862;10.672;2022-07-06T08:09:27;18.30;99.90
29577;DHT22;16509;53.862;10.672;2022-07-06T08:11:53;18.30;99.90
29577;DHT22;16509;53.862;10.672;2022-07-06T08:14:18;18.50;99.90
29577;DHT22;16509;53.862;10.672;2022-07-06T08:16:44;18.60;99.90
29577;DHT22;16509;53.862;10.672;2022-07-06T08:19:10;18.80;99.90
29577;DHT22;16509;53.862;10.672;2022-07-06T08:21:39;18.90;99.90
29577;DHT22;16509;53.862;10.672;2022-07-06T08:24:05;18.90;99.90
29577;DHT22;16509;53.862;10.672;2022-07-06T08:26:30;19.00;99.90
29577;DHT22;16509;53.862;10.672;2022-07-06T08:28:56;19.00;99.90
29577;DHT22;16509;53.862;10.672;2022-07-06T08:31:22;19.20;99.90
29577;DHT22;16509;53.862;10.672;2022-07-06T08:33:47;19.10;99.90
29577;DHT22;16509;53.862;10.672;2022-07-06T08:36:14;18.80;99.90
29577;DHT22;16509;53.862;10.672;2022-07-06T08:38:40;18.90;99.90
29577;DHT22;16509;53.862;10.672;2022-07-06T08:41:06;18.70;99.90
29577;DHT22;16509;53.862;10.672;2022-07-06T08:43:33;18.90;99.90
29577;DHT22;16509;53.862;10.672;2022-07-06T08:46:00;19.10;99.90
29577;DHT22;16509;53.862;10.672;2022-07-06T08:48:27;19.30;99.90
29577;DHT22;16509;53.862;10.672;2022-07-06T08:50:56;19.40;99.90
29577;DHT22;16509;53.862;10.672;2022-07-06T08:53:21;19.60;99.90
29577;DHT22;16509;53.862;10.672;2022-07-06T08:55:50;19.60;99.90
29577;DHT22;16509;53.862;10.672;2022-07-06T08:58:16;19.50;99.90
29577;DHT22;16509;53.862;10.672;2022-07-06T09:00:42;19.20;99.90
29577;DHT22;16509;53.862;10.672;2022-07-06T09:03:11;19.10;99.90
29577;DHT22;16509;53.862;10.672;2022-07-06T09:05:37;19.10;99.90
29577;DHT22;16509;53.862;10.672;2022-07-06T09:08:04;19.10;99.90
29577;DHT22;16509;53.862;10.672;2022-07-06T09:10:30;19.30;99.90
29577;DHT22;16509;53.862;10.672;2022-07-06T09:13:04;19.70;99.90
29577;DHT22;16509;53.862;10.672;2022-07-06T09:15:30;19.50;99.90
29577;DHT22;16509;53.862;10.672;2022-07-06T09:17:57;19.70;99.90
29577;DHT22;16509;53.862;10.672;2022-07-06T09:20:24;19.80;99.90
29577;DHT22;16509;53.862;10.672;2022-07-06T09:22:49;19.40;99.90
29577;DHT22;16509;53.862;10.672;2022-07-06T09:25:16;19.30;99.90
29577;DHT22;16509;53.862;10.672;2022-07-06T09:27:44;19.10;99.90
29577;DHT22;16509;53.862;10.672;2022-07-06T09:30:16;19.10;99.90
29577;DHT22;16509;53.862;10.672;2022-07-06T09:32:45;19.00;99.90
29577;DHT22;16509;53.862;10.672;2022-07-06T09:38:13;18.70;99.90
29577;DHT22;16509;53.862;10.672;2022-07-06T09:40:41;19.00;99.90
29577;DHT22;16509;53.862;10.672;2022-07-06T09:45:37;18.60;99.90
29577;DHT22;16509;53.862;10.672;2022-07-06T09:48:07;18.50;99.90
29577;DHT22;16509;53.862;10.672;2022-07-06T09:50:39;18.30;99.90
29577;DHT22;16509;53.862;10.672;2022-07-06T09:53:06;17.90;99.90
29577;DHT22;16509;53.862;10.672;2022-07-06T09:55:31;17.50;99.90
29577;DHT22;16509;53.862;10.672;2022-07-06T09:57:57;17.10;99.90
29577;DHT22;16509;53.862;10.672;2022-07-06T10:00:23;16.80;99.90
29577;DHT22;16509;53.862;10.672;2022-07-06T10:02:49;17.20;99.90
29577;DHT22;16509;53.862;10.672;2022-07-06T10:05:18;16.70;99.90
29577;DHT22;16509;53.862;10.672;2022-07-06T10:07:49;16.60;99.90
29577;DHT22;16509;53.862;10.672;2022-07-06T10:10:15;16.50;99.90
29577;DHT22;16509;53.862;10.672;2022-07-06T10:12:44;16.10;99.90
29577;DHT22;16509;53.862;10.672;2022-07-06T10:15:10;16.20;99.90
29577;DHT22;16509;53.862;10.672;2022-07-06T10:17:37;16.00;99.90
29577;DHT22;16509;53.862;10.672;2022-07-06T10:20:04;15.80;99.90
29577;DHT22;16509;53.862;10.672;2022-07-06T10:22:30;15.90;99.90
29577;DHT22;16509;53.862;10.672;2022-07-06T10:24:56;16.20;99.90
29577;DHT22;16509;53.862;10.672;2022-07-06T10:27:24;16.50;99.90
29577;DHT22;16509;53.862;10.672;2022-07-06T10:29:50;17.00;99.90
29577;DHT22;16509;53.862;10.672;2022-07-06T10:32:21;17.70;99.90
29577;DHT22;16509;53.862;10.672;2022-07-06T10:34:48;17.60;99.90
29577;DHT22;16509;53.862;10.672;2022-07-06T10:37:25;18.10;99.90
29577;DHT22;16509;53.862;10.672;2022-07-06T10:39:51;18.30;99.90
29577;DHT22;16509;53.862;10.672;2022-07-06T10:42:46;18.60;99.90
29577;DHT22;16509;53.862;10.672;2022-07-06T10:45:19;19.40;99.90
29577;DHT22;16509;53.862;10.672;2022-07-06T10:47:46;19.30;99.90
29577;DHT22;16509;53.862;10.672;2022-07-06T10:50:12;19.00;99.90
29577;DHT22;16509;53.862;10.672;2022-07-06T10:52:58;19.00;99.90
29577;DHT22;16509;53.862;10.672;2022-07-06T10:55:31;19.20;99.90
29577;DHT22;16509;53.862;10.672;2022-07-06T10:57:56;19.50;99.90
29577;DHT22;16509;53.862;10.672;2022-07-06T11:00:22;19.60;99.90
29577;DHT22;16509;53.862;10.672;2022-07-06T11:02:48;19.50;99.90
29577;DHT22;16509;53.862;10.672;2022-07-06T11:05:39;19.60;99.90
29577;DHT22;16509;53.862;10.672;2022-07-06T11:08:09;19.50;99.90
29577;DHT22;16509;53.862;10.672;2022-07-06T11:10:47;19.60;99.90
29577;DHT22;16509;53.862;10.672;2022-07-06T11:13:27;19.70;99.90
29577;DHT22;16509;53.862;10.672;2022-07-06T11:16:00;19.70;99.90
29577;DHT22;16509;53.862;10.672;2022-07-06T11:18:27;19.70;99.90
29577;DHT22;16509;53.862;10.672;2022-07-06T11:23:40;19.80;99.90
29577;DHT22;16509;53.862;10.672;2022-07-06T11:26:06;19.90;99.90
29577;DHT22;16509;53.862;10.672;2022-07-06T11:28:32;19.70;99.90
29577;DHT22;16509;53.862;10.672;2022-07-06T11:30:57;19.40;99.90
29577;DHT22;16509;53.862;10.672;2022-07-06T11:33:29;19.60;99.90
29577;DHT22;16509;53.862;10.672;2022-07-06T11:38:40;20.20;99.90
29577;DHT22;16509;53.862;10.672;2022-07-06T11:41:05;20.70;99.90
29577;DHT22;16509;53.862;10.672;2022-07-06T11:43:31;21.00;99.90
29577;DHT22;16509;53.862;10.672;2022-07-06T11:45:56;21.00;99.90
29577;DHT22;16509;53.862;10.672;2022-07-06T11:48:22;20.70;99.90
29577;DHT22;16509;53.862;10.672;2022-07-06T11:51:01;20.50;99.90
29577;DHT22;16509;53.862;10.672;2022-07-06T11:53:28;20.70;99.90
29577;DHT22;16509;53.862;10.672;2022-07-06T11:55:54;20.00;99.90
29577;DHT22;16509;53.862;10.672;2022-07-06T11:58:23;19.80;99.90
29577;DHT22;16509;53.862;10.672;2022-07-06T12:01:09;19.70;99.90
29577;DHT22;16509;53.862;10.672;2022-07-06T12:03:35;19.70;99.90
29577;DHT22;16509;53.862;10.672;2022-07-06T12:06:05;19.40;99.90
29577;DHT22;16509;53.862;10.672;2022-07-06T12:08:32;19.10;99.90
29577;DHT22;16509;53.862;10.672;2022-07-06T12:11:00;19.20;99.90
29577;DHT22;16509;53.862;10.672;2022-07-06T12:13:25;19.10;99.90
29577;DHT22;16509;53.862;10.672;2022-07-06T12:15:51;19.30;99.90
29577;DHT22;16509;53.862;10.672;2022-07-06T12:18:17;19.40;99.90
29577;DHT22;16509;53.862;10.672;2022-07-06T12:20:43;19.20;99.90
29577;DHT22;16509;53.862;10.672;2022-07-06T12:23:09;19.10;99.90
29577;DHT22;16509;53.862;10.672;2022-07-06T12:25:36;19.10;99.90
29577;DHT22;16509;53.862;10.672;2022-07-06T12:28:03;19.00;99.90
29577;DHT22;16509;53.862;10.672;2022-07-06T12:30:28;19.00;99.90
29577;DHT22;16509;53.862;10.672;2022-07-06T12:33:15;18.90;99.90
29577;DHT22;16509;53.862;10.672;2022-07-06T12:35:43;18.80;99.90
29577;DHT22;16509;53.862;10.672;2022-07-06T12:38:09;18.70;99.90
29577;DHT22;16509;53.862;10.672;2022-07-06T12:40:36;18.70;99.90
29577;DHT22;16509;53.862;10.672;2022-07-06T12:43:05;18.90;99.90
29577;DHT22;16509;53.862;10.672;2022-07-06T12:45:31;19.10;99.90
29577;DHT22;16509;53.862;10.672;2022-07-06T12:48:04;19.10;99.90
29577;DHT22;16509;53.862;10.672;2022-07-06T12:50:38;19.10;99.90
29577;DHT22;16509;53.862;10.672;2022-07-06T12:53:05;18.90;99.90
29577;DHT22;16509;53.862;10.672;2022-07-06T12:55:31;19.00;99.90
29577;DHT22;16509;53.862;10.672;2022-07-06T12:57:58;19.40;99.90
29577;DHT22;16509;53.862;10.672;2022-07-06T13:00:24;19.70;99.90
29577;DHT22;16509;53.862;10.672;2022-07-06T13:02:52;20.10;99.90
29577;DHT22;16509;53.862;10.672;2022-07-06T13:05:23;20.40;99.90
29577;DHT22;16509;53.862;10.672;2022-07-06T13:07:54;20.30;99.90
29577;DHT22;16509;53.862;10.672;2022-07-06T13:10:21;19.90;99.90
29577;DHT22;16509;53.862;10.672;2022-07-06T13:12:47;19.80;99.90
29577;DHT22;16509;53.862;10.672;2022-07-06T13:15:13;19.40;99.90
29577;DHT22;16509;53.862;10.672;2022-07-06T13:17:40;19.20;99.90
29577;DHT22;16509;53.862;10.672;2022-07-06T13:20:08;18.80;99.90
29577;DHT22;16509;53.862;10.672;2022-07-06T13:22:33;18.70;99.90
29577;DHT22;16509;53.862;10.672;2022-07-06T13:25:03;18.70;99.90
29577;DHT22;16509;53.862;10.672;2022-07-06T13:27:28;18.90;99.90
29577;DHT22;16509;53.862;10.672;2022-07-06T13:29:54;19.00;99.90
29577;DHT22;16509;53.862;10.672;2022-07-06T13:32:20;19.00;99.90
29577;DHT22;16509;53.862;10.672;2022-07-06T13:34:47;19.00;99.90
29577;DHT22;16509;53.862;10.672;2022-07-06T13:37:12;18.80;99.90
29577;DHT22;16509;53.862;10.672;2022-07-06T13:39:38;18.60;99.90
29577;DHT22;16509;53.862;10.672;2022-07-06T13:42:04;18.50;99.90
29577;DHT22;16509;53.862;10.672;2022-07-06T13:44:30;18.30;99.90
29577;DHT22;16509;53.862;10.672;2022-07-06T13:46:55;18.20;99.90
29577;DHT22;16509;53.862;10.672;2022-07-06T13:49:21;18.40;99.90
29577;DHT22;16509;53.862;10.672;2022-07-06T13:51:47;18.50;99.90
29577;DHT22;16509;53.862;10.672;2022-07-06T13:54:12;18.60;99.90
29577;DHT22;16509;53.862;10.672;2022-07-06T13:56:39;18.70;99.90
29577;DHT22;16509;53.862;10.672;2022-07-06T13:59:06;18.60;99.90
29577;DHT22;16509;53.862;10.672;2022-07-06T14:01:31;18.60;99.90
29577;DHT22;16509;53.862;10.672;2022-07-06T14:03:58;18.70;99.90
29577;DHT22;16509;53.862;10.672;2022-07-06T14:06:24;18.70;99.90
29577;DHT22;16509;53.862;10.672;2022-07-06T14:08:49;19.30;99.90
29577;DHT22;16509;53.862;10.672;2022-07-06T14:11:16;18.90;99.90
29577;DHT22;16509;53.862;10.672;2022-07-06T14:13:42;18.80;99.90
29577;DHT22;16509;53.862;10.672;2022-07-06T14:16:09;18.70;99.90
29577;DHT22;16509;53.862;10.672;2022-07-06T14:18:34;18.80;99.90
29577;DHT22;16509;53.862;10.672;2022-07-06T14:21:00;19.00;99.90
29577;DHT22;16509;53.862;10.672;2022-07-06T14:23:26;19.20;99.90
29577;DHT22;16509;53.862;10.672;2022-07-06T14:25:53;19.40;99.90
29577;DHT22;16509;53.862;10.672;2022-07-06T14:28:20;19.50;99.90
29577;DHT22;16509;53.862;10.672;2022-07-06T14:30:55;19.60;99.90
29577;DHT22;16509;53.862;10.672;2022-07-06T14:33:21;19.50;99.90
29577;DHT22;16509;53.862;10.672;2022-07-06T14:35:48;19.40;99.90
29577;DHT22;16509;53.862;10.672;2022-07-06T14:38:19;19.30;99.90
29577;DHT22;16509;53.862;10.672;2022-07-06T14:40:45;19.20;99.90
29577;DHT22;16509;53.862;10.672;2022-07-06T14:43:11;19.10;99.90
29577;DHT22;16509;53.862;10.672;2022-07-06T14:45:37;19.20;99.90
29577;DHT22;16509;53.862;10.672;2022-07-06T14:48:03;19.20;99.90
29577;DHT22;16509;53.862;10.672;2022-07-06T14:50:30;19.30;99.90
29577;DHT22;16509;53.862;10.672;2022-07-06T14:52:56;19.30;99.90
29577;DHT22;16509;53.862;10.672;2022-07-06T14:55:22;19.30;99.90
29577;DHT22;16509;53.862;10.672;2022-07-06T14:57:48;19.30;99.90
29577;DHT22;16509;53.862;10.672;2022-07-06T15:00:14;19.20;99.90
29577;DHT22;16509;53.862;10.672;2022-07-06T15:02:41;19.30;99.90
29577;DHT22;16509;53.862;10.672;2022-07-06T15:05:08;19.30;99.90
29577;DHT22;16509;53.862;10.672;2022-07-06T15:07:34;19.40;99.90
29577;DHT22;16509;53.862;10.672;2022-07-06T15:10:00;19.30;99.90
29577;DHT22;16509;53.862;10.672;2022-07-06T15:12:25;19.40;99.90
29577;DHT22;16509;53.862;10.672;2022-07-06T15:14:51;19.40;99.90
29577;DHT22;16509;53.862;10.672;2022-07-06T15:17:17;19.50;99.90
29577;DHT22;16509;53.862;10.672;2022-07-06T15:19:44;19.50;99.90
29577;DHT22;16509;53.862;10.672;2022-07-06T15:22:10;19.40;99.90
29577;DHT22;16509;53.862;10.672;2022-07-06T15:24:36;19.30;99.90
29577;DHT22;16509;53.862;10.672;2022-07-06T15:27:03;19.30;99.90
29577;DHT22;16509;53.862;10.672;2022-07-06T15:29:32;19.30;99.90